Terminal Aerodrome Forecast
Issued by NWS New Orleans/Baton Rouge, LA

Home | Current Version | Previous Version | Text Only | Print | Product List | Glossary On
Versions: 1 2 3 4 5 6 7 8 9 10 11 12 13 14 15
000
FTUS44 KLIX 200500
TAFBTR
TAF
KBTR 200533Z 2006/2106 04008KT 6SM -RA OVC006
     FM201100 03006KT P6SM OVC010
     FM201400 04007KT P6SM BKN012
     FM201730 04006KT P6SM BKN020
     FM202200 04004KT P6SM BKN030=

USA.gov is the U.S. government's official web portal to all federal, state and local government web resources and services.